Time;durP1;ratioP1;P1;durP2;ratioP2;P2;SDS_P1;SDS_P2;PMS_P1;PMS_P2;Temp;Humidity;BMP_temperature;BMP_pressure;BME280_temperature;BME280_humidity;BME280_pressure;Samples;Min_cycle;Max_cycle;Signal;HPM_P1;HPM_P2
2022/04/24 00:00:05;;;;;;;8.10;7.30;;;;;;;10.68;53.53;99190.00;4982242;28;20568;-80
2022/04/24 00:02:32;;;;;;;7.23;6.53;;;;;;;10.69;53.63;99191.63;4981296;28;20464;-80
2022/04/24 00:05:00;;;;;;;7.63;6.87;;;;;;;10.59;53.71;99188.28;4981810;28;20460;-81
2022/04/24 00:07:27;;;;;;;9.40;7.40;;;;;;;10.59;54.14;99178.47;4981470;28;20476;-80
2022/04/24 00:09:53;;;;;;;8.70;7.20;;;;;;;10.51;54.35;99184.63;4982536;28;20927;-79
2022/04/24 00:12:20;;;;;;;9.00;7.30;;;;;;;10.49;54.56;99181.28;4981661;28;20484;-78
2022/04/24 00:14:48;;;;;;;8.63;6.97;;;;;;;10.53;54.70;99179.94;4982347;28;20487;-79
2022/04/24 00:17:16;;;;;;;10.30;7.17;;;;;;;10.37;55.35;99174.59;4981832;28;20480;-79
2022/04/24 00:19:43;;;;;;;7.83;7.00;;;;;;;10.42;55.33;99168.78;4981334;28;21064;-79
2022/04/24 00:22:11;;;;;;;7.07;6.37;;;;;;;10.38;55.47;99167.41;4982374;28;20739;-79
2022/04/24 00:24:37;;;;;;;7.13;6.40;;;;;;;10.28;55.46;99181.75;5001468;28;20518;-79
2022/04/24 00:27:04;;;;;;;9.20;7.87;;;;;;;10.32;55.64;99169.75;5000741;28;20499;-80
2022/04/24 00:29:31;;;;;;;7.97;6.83;;;;;;;10.27;55.99;99165.88;4986035;28;20444;-80
2022/04/24 00:31:58;;;;;;;6.93;6.30;;;;;;;10.23;55.89;99167.22;4981483;28;20500;-79
2022/04/24 00:34:24;;;;;;;8.80;7.20;;;;;;;10.17;56.20;99160.69;4981304;28;20457;-81
2022/04/24 00:36:51;;;;;;;7.73;6.90;;;;;;;10.23;56.53;99159.19;4979700;28;20551;-81
2022/04/24 00:39:19;;;;;;;7.77;6.63;;;;;;;10.19;56.63;99164.03;4981070;28;20524;-80
2022/04/24 00:41:46;;;;;;;7.30;6.60;;;;;;;10.18;56.51;99160.50;4980786;28;20484;-80
2022/04/24 00:44:14;;;;;;;9.43;6.80;;;;;;;10.07;56.88;99152.84;4980553;28;20519;-79
2022/04/24 00:46:46;;;;;;;7.30;6.60;;;;;;;10.10;56.86;99154.31;4980330;28;20496;-79
2022/04/24 00:49:13;;;;;;;9.97;7.00;;;;;;;10.04;57.10;99155.81;4981346;28;20461;-80
2022/04/24 00:51:42;;;;;;;8.67;7.27;;;;;;;9.99;57.25;99150.97;4981156;28;20515;-79
2022/04/24 00:54:10;;;;;;;10.57;7.47;;;;;;;9.98;57.31;99157.31;4982091;28;20941;-79
2022/04/24 00:56:40;;;;;;;7.57;6.77;;;;;;;9.91;57.75;99152.78;4977369;28;20539;-79
2022/04/24 00:59:08;;;;;;;6.67;5.97;;;;;;;9.84;57.75;99151.78;4973268;28;20535;-78
2022/04/24 01:01:35;;;;;;;7.93;6.50;;;;;;;9.85;57.68;99137.44;4971839;28;20484;-79
2022/04/24 01:04:04;;;;;;;8.73;7.17;;;;;;;9.82;58.05;99143.09;4981491;28;20507;-80
2022/04/24 01:06:34;;;;;;;6.77;6.13;;;;;;;9.76;58.23;99134.75;4979214;28;20551;-80
2022/04/24 01:09:09;;;;;;;9.63;6.97;;;;;;;9.69;58.15;99128.38;4981097;28;20480;-75
2022/04/24 01:11:37;;;;;;;8.77;6.43;;;;;;;9.67;58.24;99142.88;4964670;28;20485;-79
2022/04/24 01:14:04;;;;;;;9.60;5.80;;;;;;;9.67;58.21;99140.19;4963383;28;20441;-80
2022/04/24 01:16:31;;;;;;;6.37;5.77;;;;;;;9.73;58.16;99139.56;4969853;28;20486;-80
2022/04/24 01:18:58;;;;;;;6.50;5.83;;;;;;;9.70;58.35;99142.56;4965944;28;20549;-81
2022/04/24 01:21:26;;;;;;;6.93;6.23;;;;;;;9.66;58.27;99143.88;4980068;28;20480;-78
2022/04/24 01:23:53;;;;;;;6.40;5.77;;;;;;;9.65;58.58;99145.69;4980817;28;20445;-79
2022/04/24 01:26:20;;;;;;;6.60;5.23;;;;;;;9.63;58.68;99139.69;4980773;28;20556;-79
2022/04/24 01:28:46;;;;;;;6.10;5.47;;;;;;;9.57;58.57;99141.19;4963453;28;20469;-79
2022/04/24 01:31:13;;;;;;;6.53;5.77;;;;;;;9.49;58.91;99143.81;4962214;28;20536;-79
2022/04/24 01:33:40;;;;;;;7.83;6.37;;;;;;;9.57;58.69;99148.38;4979552;28;20441;-80
2022/04/24 01:36:06;;;;;;;6.23;5.30;;;;;;;9.46;59.05;99143.31;4975341;28;20504;-80
2022/04/24 01:38:34;;;;;;;11.70;6.67;;;;;;;9.52;58.74;99140.84;4962245;28;20485;-80
2022/04/24 01:41:01;;;;;;;5.97;5.40;;;;;;;9.47;59.16;99143.16;4980489;28;20563;-81
2022/04/24 01:43:28;;;;;;;6.70;5.53;;;;;;;9.43;59.27;99142.63;4979443;28;20453;-80
2022/04/24 01:45:55;;;;;;;6.83;6.07;;;;;;;9.50;59.05;99147.34;4980801;28;20480;-81
2022/04/24 01:48:22;;;;;;;7.97;5.53;;;;;;;9.46;59.13;99138.81;4971734;28;20493;-80
2022/04/24 01:50:49;;;;;;;8.60;5.07;;;;;;;9.38;59.14;99139.59;4965572;28;20446;-81
2022/04/24 01:53:15;;;;;;;6.83;5.70;;;;;;;9.42;59.25;99134.78;4981049;28;20489;-81
2022/04/24 01:55:43;;;;;;;5.93;4.93;;;;;;;9.39;59.38;99135.09;4965271;28;20480;-81
2022/04/24 01:58:10;;;;;;;6.83;6.20;;;;;;;9.36;58.98;99140.78;4984399;28;20663;-81
2022/04/24 02:00:36;;;;;;;6.93;5.93;;;;;;;9.35;59.24;99147.09;4980677;28;21065;-81
2022/04/24 02:03:03;;;;;;;6.60;5.10;;;;;;;9.31;59.26;99148.44;4965551;28;20480;-81
2022/04/24 02:05:30;;;;;;;5.53;4.83;;;;;;;9.30;59.43;99152.06;4974211;28;20493;-83
2022/04/24 02:07:56;;;;;;;11.47;5.97;;;;;;;9.34;59.17;99137.41;4965527;28;20445;-81
2022/04/24 02:10:23;;;;;;;7.60;5.20;;;;;;;9.38;59.14;99144.94;4970270;28;20950;-81
2022/04/24 02:12:51;;;;;;;9.10;5.87;;;;;;;9.42;58.92;99142.78;4983216;28;20454;-80
2022/04/24 02:15:18;;;;;;;9.13;5.60;;;;;;;9.38;59.12;99134.28;4983978;28;20532;-80
2022/04/24 02:17:45;;;;;;;8.20;5.90;;;;;;;9.37;59.11;99135.28;4982765;28;20456;-80
2022/04/24 02:20:11;;;;;;;6.63;6.00;;;;;;;9.26;59.52;99143.56;4964627;28;20513;-79
2022/04/24 02:22:38;;;;;;;7.73;5.70;;;;;;;9.27;59.42;99136.38;4975903;28;20476;-79
2022/04/24 02:25:05;;;;;;;5.60;5.07;;;;;;;9.23;59.59;99139.41;4965940;28;20456;-79
2022/04/24 02:27:32;;;;;;;7.97;5.50;;;;;;;9.21;59.52;99144.03;4964460;29;20496;-78
2022/04/24 02:30:00;;;;;;;6.03;5.30;;;;;;;9.19;59.88;99140.69;4983744;28;20479;-79
2022/04/24 02:32:27;;;;;;;9.83;4.90;;;;;;;9.24;59.64;99138.38;4982617;28;20484;-78
2022/04/24 02:34:53;;;;;;;7.40;5.10;;;;;;;9.10;59.92;99138.16;4974678;28;20445;-80
2022/04/24 02:37:22;;;;;;;9.80;5.80;;;;;;;9.06;60.10;99137.59;4973334;28;20511;-79
2022/04/24 02:39:48;;;;;;;6.50;4.77;;;;;;;9.07;60.30;99138.47;4982105;28;20488;-79
2022/04/24 02:42:15;;;;;;;6.70;4.80;;;;;;;8.97;60.46;99141.22;4983026;28;20480;-80
2022/04/24 02:44:42;;;;;;;6.70;5.43;;;;;;;8.91;60.88;99137.38;4981378;28;20488;-80
2022/04/24 02:47:10;;;;;;;8.50;6.23;;;;;;;8.82;61.21;99141.00;4963672;28;20481;-79
2022/04/24 02:49:37;;;;;;;6.10;5.10;;;;;;;8.80;61.10;99135.81;4965441;28;20470;-79
2022/04/24 02:52:04;;;;;;;5.70;5.20;;;;;;;8.61;61.66;99141.31;4965042;28;20469;-79
2022/04/24 02:54:31;;;;;;;8.60;5.03;;;;;;;8.51;61.81;99129.94;4979534;28;20480;-79
2022/04/24 02:56:57;;;;;;;6.67;5.97;;;;;;;8.54;61.72;99143.78;4983077;28;20508;-80
2022/04/24 02:59:25;;;;;;;6.23;5.30;;;;;;;8.33;62.55;99137.91;4983246;28;20895;-80
2022/04/24 03:01:54;;;;;;;7.83;7.00;;;;;;;8.33;62.68;99140.56;4982872;28;20504;-80
2022/04/24 03:04:22;;;;;;;15.13;5.50;;;;;;;8.26;62.81;99141.19;4983624;28;20471;-80
2022/04/24 03:06:48;;;;;;;6.27;5.67;;;;;;;8.19;62.99;99137.44;4982781;28;20476;-80
2022/04/24 03:09:15;;;;;;;6.63;5.60;;;;;;;8.13;63.21;99135.41;4982472;28;20459;-81
2022/04/24 03:11:42;;;;;;;6.27;5.67;;;;;;;8.12;63.23;99133.72;4982816;28;21190;-81
2022/04/24 03:14:08;;;;;;;6.47;5.87;;;;;;;8.12;63.51;99141.72;4983224;28;20532;-79
2022/04/24 03:16:35;;;;;;;7.17;5.50;;;;;;;8.08;63.54;99146.50;4982093;28;20639;-79
2022/04/24 03:19:02;;;;;;;6.93;5.50;;;;;;;7.97;63.87;99141.44;4982616;28;20464;-80
2022/04/24 03:21:30;;;;;;;7.20;6.50;;;;;;;8.07;63.62;99150.19;4981681;28;20483;-81
2022/04/24 03:23:56;;;;;;;6.13;5.60;;;;;;;7.99;63.86;99147.44;4982662;28;20478;-82
2022/04/24 03:26:23;;;;;;;9.13;6.00;;;;;;;8.04;63.92;99149.66;4982119;28;20520;-81
2022/04/24 03:28:50;;;;;;;8.20;5.60;;;;;;;8.00;64.03;99149.13;4982538;28;20488;-81
2022/04/24 03:31:16;;;;;;;7.30;5.47;;;;;;;7.92;64.17;99149.84;4982224;28;20503;-78
2022/04/24 03:33:43;;;;;;;6.93;5.30;;;;;;;7.82;64.42;99149.06;4982694;28;20456;-82
2022/04/24 03:36:10;;;;;;;6.63;5.73;;;;;;;7.89;64.25;99147.47;4981391;28;20483;-82
2022/04/24 03:38:38;;;;;;;9.10;5.40;;;;;;;7.89;64.35;99144.00;4982584;28;20525;-82
2022/04/24 03:41:05;;;;;;;6.83;6.13;;;;;;;7.76;64.66;99143.50;4981561;28;20487;-81
2022/04/24 03:43:31;;;;;;;8.23;5.63;;;;;;;7.70;64.69;99142.28;4982198;28;20472;-81
2022/04/24 03:45:58;;;;;;;6.93;5.97;;;;;;;7.76;64.62;99140.84;4982476;28;20492;-82
2022/04/24 03:48:25;;;;;;;6.77;5.70;;;;;;;7.62;64.58;99144.84;4982165;28;20453;-83
2022/04/24 03:50:52;;;;;;;8.37;5.57;;;;;;;7.52;65.09;99147.59;4981827;28;20469;-79
2022/04/24 03:53:19;;;;;;;6.17;5.40;;;;;;;7.54;65.05;99143.78;4983058;28;20441;-82
2022/04/24 03:55:47;;;;;;;5.80;5.30;;;;;;;7.38;65.46;99140.94;4982042;28;20472;-80
2022/04/24 03:58:14;;;;;;;6.10;5.30;;;;;;;7.37;65.59;99139.25;4982246;28;20457;-80
2022/04/24 04:00:40;;;;;;;5.73;5.13;;;;;;;7.27;65.83;99141.13;4981849;28;20505;-80
2022/04/24 04:03:07;;;;;;;7.53;6.13;;;;;;;7.31;65.98;99145.19;4982526;28;20746;-80
2022/04/24 04:05:37;;;;;;;6.57;5.60;;;;;;;7.23;66.17;99143.22;4980761;28;20511;-80
2022/04/24 04:08:04;;;;;;;5.87;5.27;;;;;;;7.30;66.15;99151.47;4982331;28;20452;-81
2022/04/24 04:10:31;;;;;;;7.53;6.40;;;;;;;7.31;65.87;99146.00;4981644;28;20491;-81
2022/04/24 04:13:01;;;;;;;7.20;5.73;;;;;;;7.26;65.79;99144.78;4981564;28;20448;-81
2022/04/24 04:15:27;;;;;;;6.10;5.60;;;;;;;7.28;65.83;99148.13;4981431;28;20539;-81
2022/04/24 04:17:54;;;;;;;8.50;6.00;;;;;;;7.27;65.81;99141.94;4981396;28;20473;-81
2022/04/24 04:20:21;;;;;;;7.27;6.00;;;;;;;7.25;66.17;99151.91;4980620;28;21019;-81
2022/04/24 04:22:51;;;;;;;8.60;5.40;;;;;;;7.23;65.70;99145.88;4982004;28;20449;-79
2022/04/24 04:25:18;;;;;;;8.67;6.07;;;;;;;7.28;65.52;99148.94;4999066;28;20483;-81
2022/04/24 04:27:44;;;;;;;8.37;5.00;;;;;;;7.16;65.86;99147.47;4992404;28;20471;-81
2022/04/24 04:30:13;;;;;;;6.20;5.60;;;;;;;7.25;65.51;99151.91;4981035;28;20449;-82
2022/04/24 04:32:39;;;;;;;7.60;5.57;;;;;;;7.31;65.38;99148.66;4981786;28;20503;-80
2022/04/24 04:35:09;;;;;;;6.57;6.00;;;;;;;7.48;64.82;99151.50;4981179;28;20528;-80
2022/04/24 04:37:36;;;;;;;6.90;5.40;;;;;;;7.56;64.53;99151.63;4981339;28;20464;-81
2022/04/24 04:40:03;;;;;;;6.90;5.17;;;;;;;7.63;64.44;99154.53;4981524;28;20519;-81
2022/04/24 04:42:29;;;;;;;8.20;5.20;;;;;;;7.44;64.70;99153.63;4981371;28;20901;-81
2022/04/24 04:44:59;;;;;;;6.07;5.47;;;;;;;7.57;64.38;99147.97;4981163;28;21008;-81
2022/04/24 04:47:27;;;;;;;7.77;5.03;;;;;;;7.56;64.41;99146.28;4981838;28;20476;-79
2022/04/24 04:49:54;;;;;;;10.73;6.10;;;;;;;7.75;63.97;99140.03;4981495;28;20490;-81
2022/04/24 04:52:20;;;;;;;6.43;4.73;;;;;;;7.61;64.22;99153.84;4982043;28;20476;-81
2022/04/24 04:54:47;;;;;;;7.20;5.93;;;;;;;7.55;64.21;99149.94;4981943;28;20468;-81
2022/04/24 04:57:14;;;;;;;5.90;5.30;;;;;;;7.94;63.18;99149.72;4981497;28;20508;-80
2022/04/24 04:59:40;;;;;;;7.53;5.43;;;;;;;8.14;62.50;99155.69;4982118;28;20507;-80
2022/04/24 05:02:07;;;;;;;6.30;5.13;;;;;;;9.46;58.43;99159.31;4981513;28;20546;-80
2022/04/24 05:04:35;;;;;;;6.63;4.60;;;;;;;9.89;56.52;99152.94;4981654;28;20472;-79
2022/04/24 05:07:02;;;;;;;6.20;5.27;;;;;;;10.01;55.57;99160.66;4981244;28;20480;-79
2022/04/24 05:09:29;;;;;;;5.90;4.47;;;;;;;11.08;52.64;99169.56;4981714;28;20488;-80
2022/04/24 05:11:55;;;;;;;5.03;4.47;;;;;;;10.96;52.62;99166.38;4981539;28;20992;-80
2022/04/24 05:14:22;;;;;;;9.40;5.03;;;;;;;11.23;51.61;99172.34;4981669;28;20705;-79
2022/04/24 05:16:48;;;;;;;5.13;4.53;;;;;;;11.84;50.09;99165.41;4980643;28;20506;-80
2022/04/24 05:19:15;;;;;;;5.10;4.60;;;;;;;12.01;49.51;99168.03;4981522;28;20456;-80
2022/04/24 05:21:43;;;;;;;5.70;4.60;;;;;;;12.16;49.24;99173.47;4966857;28;20488;-79
2022/04/24 05:24:10;;;;;;;6.80;5.60;;;;;;;12.05;49.59;99172.03;4982733;28;20463;-80
2022/04/24 05:26:36;;;;;;;5.87;4.43;;;;;;;12.24;48.47;99170.75;4990339;28;20478;-80
2022/04/24 05:29:03;;;;;;;5.77;4.50;;;;;;;13.18;45.85;99173.94;4997758;28;20683;-80
2022/04/24 05:31:30;;;;;;;6.03;5.30;;;;;;;12.80;47.10;99173.16;4987104;28;20499;-82
2022/04/24 05:33:57;;;;;;;6.03;4.93;;;;;;;13.12;46.74;99172.00;5005059;28;20435;-81
2022/04/24 05:36:23;;;;;;;5.20;4.77;;;;;;;13.55;44.87;99182.94;4994677;28;20519;-80
2022/04/24 05:38:51;;;;;;;7.13;4.63;;;;;;;13.99;44.44;99181.25;4985407;28;20452;-80
2022/04/24 05:41:18;;;;;;;6.90;4.50;;;;;;;14.15;43.53;99190.94;4984784;28;20519;-78
2022/04/24 05:43:45;;;;;;;7.17;4.47;;;;;;;13.69;44.22;99183.13;4984780;28;20607;-79
2022/04/24 05:46:11;;;;;;;10.00;4.70;;;;;;;13.89;44.33;99180.72;4984763;28;20579;-80
2022/04/24 05:48:38;;;;;;;7.03;5.03;;;;;;;13.14;45.95;99187.91;4984844;28;20488;-80
2022/04/24 05:51:04;;;;;;;6.23;4.60;;;;;;;13.58;45.12;99175.56;4984031;28;20476;-79
2022/04/24 05:53:31;;;;;;;8.63;5.33;;;;;;;14.06;43.34;99181.28;4984780;28;20834;-84
2022/04/24 05:55:59;;;;;;;8.00;4.50;;;;;;;14.46;43.16;99173.66;4993266;28;20471;-83
2022/04/24 05:58:26;;;;;;;5.07;4.53;;;;;;;14.75;42.44;99175.38;5004907;28;20458;-83
2022/04/24 06:00:53;;;;;;;5.30;4.70;;;;;;;14.86;42.57;99182.13;4988905;28;20500;-84
2022/04/24 06:03:19;;;;;;;5.23;4.77;;;;;;;13.90;43.88;99185.88;4985028;28;20476;-83
2022/04/24 06:05:47;;;;;;;5.83;5.23;;;;;;;13.91;43.59;99176.78;4984058;28;20484;-84
2022/04/24 06:08:13;;;;;;;6.70;5.00;;;;;;;13.91;43.79;99182.16;4985291;28;20445;-84
2022/04/24 06:10:41;;;;;;;5.40;4.70;;;;;;;14.25;43.62;99172.63;4985262;28;20503;-82
2022/04/24 06:13:09;;;;;;;5.17;4.70;;;;;;;13.98;44.04;99181.44;4985301;28;20429;-83
2022/04/24 06:15:39;;;;;;;6.07;4.73;;;;;;;13.92;44.24;99181.16;4984143;28;20567;-79
2022/04/24 06:18:06;;;;;;;4.47;4.07;;;;;;;14.24;43.24;99179.03;4983834;28;20460;-84
2022/04/24 06:20:33;;;;;;;6.60;5.00;;;;;;;13.59;44.72;99180.72;4983875;28;21076;-79
2022/04/24 06:23:00;;;;;;;5.83;4.53;;;;;;;13.66;44.55;99181.66;4984095;28;20444;-78
2022/04/24 06:25:28;;;;;;;6.30;5.10;;;;;;;14.81;42.16;99184.56;4984494;28;20495;-79
2022/04/24 06:27:55;;;;;;;5.50;4.80;;;;;;;14.74;42.32;99179.13;4992438;28;20482;-80
2022/04/24 06:30:24;;;;;;;6.90;5.47;;;;;;;14.54;42.96;99176.22;4983924;28;20517;-78
2022/04/24 06:32:51;;;;;;;7.87;4.90;;;;;;;14.49;42.72;99175.97;4990033;28;20476;-78
2022/04/24 06:35:18;;;;;;;6.20;5.03;;;;;;;15.04;41.60;99177.06;4991130;28;20459;-80
2022/04/24 06:37:46;;;;;;;6.30;5.13;;;;;;;15.72;40.66;99176.44;4984864;28;20460;-80
2022/04/24 06:40:14;;;;;;;11.57;5.23;;;;;;;15.11;41.94;99182.50;4983550;28;20535;-76
2022/04/24 06:42:52;;;;;;;6.27;4.87;;;;;;;14.78;42.76;99175.00;4984279;28;20466;-76
2022/04/24 06:45:25;;;;;;;5.63;4.53;;;;;;;15.42;41.01;99170.50;4982716;28;20496;-77
2022/04/24 06:47:52;;;;;;;7.43;5.37;;;;;;;16.06;39.44;99173.88;4984330;28;20453;-87
2022/04/24 06:50:18;;;;;;;6.90;5.40;;;;;;;16.43;39.00;99163.63;4982730;28;20523;-83
2022/04/24 06:52:45;;;;;;;5.77;5.20;;;;;;;15.88;39.31;99164.50;4984490;28;20456;-83
2022/04/24 06:55:12;;;;;;;6.77;5.30;;;;;;;14.12;43.60;99159.88;4982284;28;20459;-83
2022/04/24 06:57:38;;;;;;;6.60;5.17;;;;;;;15.41;41.05;99158.03;4984934;28;20453;-83
2022/04/24 07:00:06;;;;;;;5.07;4.57;;;;;;;15.42;41.39;99168.63;4983744;28;20561;-83
2022/04/24 07:02:34;;;;;;;6.10;4.40;;;;;;;16.24;39.46;99157.97;4985394;28;20479;-85
2022/04/24 07:05:01;;;;;;;8.50;6.13;;;;;;;15.80;40.20;99172.78;4978437;28;20847;-82
2022/04/24 07:07:28;;;;;;;5.07;4.30;;;;;;;15.46;40.99;99173.63;4999175;28;20574;-82
2022/04/24 07:09:54;;;;;;;6.23;4.70;;;;;;;16.51;39.55;99158.03;4999746;28;20448;-82
2022/04/24 07:12:21;;;;;;;5.03;4.63;;;;;;;16.92;38.42;99160.53;4983189;28;20504;-87
2022/04/24 07:14:48;;;;;;;6.10;4.70;;;;;;;16.87;38.82;99160.34;4982833;28;20580;-84
2022/04/24 07:17:15;;;;;;;4.93;4.13;;;;;;;16.92;38.56;99170.50;4980573;28;20480;-74
2022/04/24 07:19:43;;;;;;;4.80;4.40;;;;;;;16.59;38.90;99165.91;4979837;28;20460;-77
2022/04/24 07:22:09;;;;;;;6.03;4.50;;;;;;;18.32;35.58;99172.78;4984261;28;20538;-80
2022/04/24 07:24:36;;;;;;;4.80;4.40;;;;;;;17.64;36.76;99168.72;4980427;28;20456;-78
2022/04/24 07:27:03;;;;;;;4.87;4.37;;;;;;;18.62;35.26;99167.56;4981626;28;20568;-75
2022/04/24 07:29:29;;;;;;;6.63;4.63;;;;;;;17.49;36.96;99173.53;4982722;28;20884;-77
2022/04/24 07:31:57;;;;;;;7.20;5.27;;;;;;;15.92;40.58;99165.78;4981797;28;20464;-78
2022/04/24 07:34:24;;;;;;;6.80;4.63;;;;;;;17.26;37.43;99165.91;4991682;28;20440;-79
2022/04/24 07:36:52;;;;;;;8.37;5.20;;;;;;;17.84;36.95;99162.41;5000595;28;20550;-81
2022/04/24 07:39:18;;;;;;;6.77;4.90;;;;;;;15.98;40.70;99164.13;4997955;28;20508;-79
2022/04/24 07:41:45;;;;;;;7.23;5.00;;;;;;;17.50;37.79;99154.41;4981782;28;20488;-74
2022/04/24 07:44:11;;;;;;;5.53;4.90;;;;;;;17.17;38.95;99153.66;4982185;28;20495;-76
2022/04/24 07:46:38;;;;;;;7.80;5.03;;;;;;;18.06;37.10;99144.84;4980843;28;21365;-75
2022/04/24 07:49:05;;;;;;;5.33;4.50;;;;;;;18.36;36.40;99152.34;4983194;28;20897;-75
2022/04/24 07:51:31;;;;;;;7.00;5.40;;;;;;;16.49;38.80;99157.38;4982160;28;20490;-78
2022/04/24 07:54:00;;;;;;;7.23;4.70;;;;;;;17.30;38.51;99161.75;4993083;28;20547;-80
2022/04/24 07:56:27;;;;;;;5.47;4.97;;;;;;;18.21;35.96;99166.22;4990337;28;20472;-81
2022/04/24 07:58:54;;;;;;;5.53;4.40;;;;;;;17.88;37.24;99160.97;4990556;28;20452;-76
2022/04/24 08:01:20;;;;;;;5.90;5.13;;;;;;;17.06;38.12;99155.94;4988918;28;20504;-78
2022/04/24 08:03:47;;;;;;;6.17;4.80;;;;;;;17.44;37.83;99160.66;4982074;28;20441;-75
2022/04/24 08:06:15;;;;;;;4.90;4.33;;;;;;;17.59;36.87;99156.91;4981025;28;20472;-76
2022/04/24 08:08:42;;;;;;;6.83;4.60;;;;;;;18.67;35.59;99158.00;4982468;28;20475;-83
2022/04/24 08:11:10;;;;;;;5.00;4.50;;;;;;;18.81;34.97;99165.78;4982517;28;20976;-77
2022/04/24 08:13:37;;;;;;;7.57;4.90;;;;;;;17.94;36.55;99168.22;4979879;28;20468;-79
2022/04/24 08:16:04;;;;;;;4.57;3.87;;;;;;;19.07;34.91;99158.50;4978874;28;20557;-78
2022/04/24 08:18:30;;;;;;;5.20;4.60;;;;;;;17.83;36.45;99166.97;4978362;28;20460;-77
2022/04/24 08:20:57;;;;;;;7.57;4.87;;;;;;;17.16;38.31;99157.41;4979861;28;20508;-78
2022/04/24 08:23:25;;;;;;;5.50;4.57;;;;;;;17.57;37.81;99161.66;4981814;28;20462;-82
2022/04/24 08:25:52;;;;;;;9.87;5.10;;;;;;;15.95;40.42;99164.53;4982421;28;20491;-79
2022/04/24 08:28:21;;;;;;;7.30;4.67;;;;;;;17.58;37.64;99160.63;4991657;28;20961;-83
2022/04/24 08:30:48;;;;;;;4.80;4.30;;;;;;;16.90;39.06;99167.19;4988120;28;20487;-82
2022/04/24 08:33:17;;;;;;;6.40;5.20;;;;;;;17.53;37.37;99160.44;4989913;28;20532;-80
2022/04/24 08:35:45;;;;;;;7.40;5.53;;;;;;;16.10;39.81;99173.28;4987408;28;20468;-83
2022/04/24 08:38:12;;;;;;;5.70;5.20;;;;;;;16.45;39.53;99166.94;4989537;28;20459;-76
2022/04/24 08:40:38;;;;;;;7.50;5.00;;;;;;;16.35;38.93;99160.09;4990545;28;20487;-79
2022/04/24 08:43:06;;;;;;;5.73;5.13;;;;;;;15.89;41.10;99162.66;4984843;28;21008;-81
2022/04/24 08:45:34;;;;;;;6.83;5.30;;;;;;;15.43;41.14;99167.59;4989249;28;20953;-82
2022/04/24 08:48:02;;;;;;;8.67;5.23;;;;;;;16.71;38.65;99166.13;4991751;28;20490;-78
2022/04/24 08:50:30;;;;;;;6.23;5.30;;;;;;;16.62;39.66;99159.28;4987827;28;20547;-82
2022/04/24 08:52:58;;;;;;;6.80;6.10;;;;;;;17.25;38.32;99153.44;4988841;28;20523;-82
2022/04/24 08:55:26;;;;;;;6.57;5.17;;;;;;;18.03;36.94;99160.69;4982814;28;20775;-79
2022/04/24 08:57:53;;;;;;;4.57;4.17;;;;;;;18.80;35.38;99166.84;5000243;28;20470;-78
2022/04/24 09:00:20;;;;;;;5.37;4.90;;;;;;;17.37;37.67;99167.13;4997081;28;20480;-81
2022/04/24 09:02:48;;;;;;;7.00;5.63;;;;;;;16.50;39.25;99178.75;4994522;28;20478;-77
2022/04/24 09:05:15;;;;;;;5.80;4.83;;;;;;;17.72;36.96;99186.56;4994128;28;20944;-76
2022/04/24 09:07:43;;;;;;;7.30;6.00;;;;;;;18.28;35.96;99174.28;5000399;28;20455;-77
2022/04/24 09:10:12;;;;;;;5.80;5.30;;;;;;;18.15;36.74;99175.16;4989618;28;20487;-79
2022/04/24 09:12:39;;;;;;;6.97;5.60;;;;;;;17.68;37.00;99179.94;4989299;28;20464;-75
2022/04/24 09:15:07;;;;;;;6.27;5.13;;;;;;;18.25;36.18;99175.53;4988100;28;20468;-73
2022/04/24 09:17:35;;;;;;;5.67;5.17;;;;;;;20.55;33.17;99182.78;4993305;28;20502;-78
2022/04/24 09:20:16;;;;;;;6.60;5.13;;;;;;;20.53;32.42;99192.25;4994067;28;20480;-80
2022/04/24 09:22:43;;;;;;;6.60;5.43;;;;;;;18.54;35.14;99173.28;4984034;28;20490;-78
2022/04/24 09:25:12;;;;;;;5.83;5.23;;;;;;;18.98;35.49;99168.78;4983319;28;20452;-80
2022/04/24 09:27:39;;;;;;;6.87;5.10;;;;;;;17.99;37.03;99170.28;4997633;28;20512;-75
2022/04/24 09:30:10;;;;;;;8.33;5.50;;;;;;;17.58;37.96;99158.75;4994711;28;20463;-76
2022/04/24 09:32:45;;;;;;;7.03;5.43;;;;;;;17.15;38.91;99171.94;5003526;28;20470;-76
2022/04/24 09:35:25;;;;;;;6.97;5.43;;;;;;;16.55;39.67;99173.59;5000288;28;20559;-74
2022/04/24 09:37:52;;;;;;;9.50;5.70;;;;;;;17.99;37.13;99171.09;4981560;28;20504;-77
2022/04/24 09:40:20;;;;;;;7.10;5.43;;;;;;;19.96;33.08;99174.44;5003191;28;20486;-76
2022/04/24 09:42:54;;;;;;;5.60;5.10;;;;;;;18.87;34.62;99183.06;5004567;28;20490;-79
2022/04/24 09:45:24;;;;;;;5.63;5.13;;;;;;;17.70;36.55;99167.84;4998701;28;20514;-79
2022/04/24 09:47:58;;;;;;;8.07;5.70;;;;;;;19.09;35.26;99180.78;5003435;28;20451;-78
2022/04/24 09:50:29;;;;;;;8.40;4.80;;;;;;;20.84;32.92;99164.00;5001726;28;20716;-77
2022/04/24 09:52:57;;;;;;;5.60;5.10;;;;;;;20.26;32.86;99182.59;4995930;28;20569;-81
2022/04/24 09:55:24;;;;;;;6.17;5.57;;;;;;;20.10;32.96;99184.06;4993443;28;20489;-75
2022/04/24 09:57:51;;;;;;;10.03;5.73;;;;;;;18.73;34.99;99187.72;4994057;28;20455;-80
2022/04/24 10:00:18;;;;;;;6.80;6.10;;;;;;;18.36;37.07;99181.31;4990717;28;20471;-75
2022/04/24 10:02:46;;;;;;;6.23;5.40;;;;;;;19.49;34.86;99168.69;4989927;28;20724;-77
2022/04/24 10:05:14;;;;;;;6.30;5.70;;;;;;;19.25;34.53;99178.53;4987264;28;20455;-77
2022/04/24 10:07:42;;;;;;;6.00;5.40;;;;;;;18.41;35.99;99179.59;4985586;28;20530;-77
2022/04/24 10:10:10;;;;;;;7.20;5.30;;;;;;;19.46;35.05;99186.25;4991383;28;20457;-81
2022/04/24 10:12:37;;;;;;;6.30;5.30;;;;;;;20.32;33.58;99188.97;4982249;28;20495;-78
2022/04/24 10:15:10;;;;;;;5.50;5.00;;;;;;;20.28;33.26;99188.63;4980812;28;20444;-78
2022/04/24 10:18:07;;;;;;;8.90;4.57;;;;;;;19.98;34.65;99176.91;4978813;28;21076;-76
2022/04/24 10:20:47;;;;;;;7.00;5.77;;;;;;;18.69;35.66;99181.06;4975871;28;20493;-82
2022/04/24 10:23:16;;;;;;;6.20;5.00;;;;;;;18.94;35.89;99177.56;4984768;28;20532;-80
2022/04/24 10:25:43;;;;;;;6.50;5.70;;;;;;;19.67;34.68;99190.41;4978546;28;20565;-79
2022/04/24 10:28:11;;;;;;;5.77;5.27;;;;;;;18.37;35.73;99182.97;4981751;28;20455;-81
2022/04/24 10:30:38;;;;;;;9.13;5.90;;;;;;;20.13;33.68;99180.06;4973628;28;20476;-79
2022/04/24 10:33:18;;;;;;;8.67;5.30;;;;;;;17.52;38.11;99165.03;4980860;28;20440;-78
2022/04/24 10:35:49;;;;;;;6.83;6.13;;;;;;;16.75;39.92;99175.47;4968022;28;20562;-79
2022/04/24 10:38:18;;;;;;;6.13;5.53;;;;;;;17.55;38.98;99170.00;4977596;28;20539;-78
2022/04/24 10:40:57;;;;;;;5.77;5.20;;;;;;;18.09;36.91;99177.91;4976981;28;20511;-82
2022/04/24 10:43:25;;;;;;;6.03;5.53;;;;;;;17.87;37.86;99164.72;4976428;28;20500;-80
2022/04/24 10:45:52;;;;;;;5.90;5.30;;;;;;;18.97;35.93;99163.59;4947057;28;382822;-81
2022/04/24 10:48:19;;;;;;;6.50;5.70;;;;;;;17.06;39.03;99155.13;4981136;28;20724;-82
2022/04/24 10:50:47;;;;;;;7.23;6.40;;;;;;;16.91;39.10;99152.66;4980010;28;21141;-81
2022/04/24 10:53:14;;;;;;;8.90;5.97;;;;;;;17.93;37.79;99150.31;4980205;28;20545;-78
2022/04/24 10:55:43;;;;;;;7.03;6.33;;;;;;;17.51;38.48;99157.94;4980346;28;20525;-78
2022/04/24 10:58:11;;;;;;;6.63;6.03;;;;;;;17.78;38.04;99147.06;4982085;28;20456;-83
2022/04/24 11:00:38;;;;;;;9.17;6.30;;;;;;;18.96;36.69;99153.81;4980487;28;20484;-76
2022/04/24 11:03:13;;;;;;;7.17;6.10;;;;;;;18.78;36.28;99154.56;4981969;28;20479;-77
2022/04/24 11:05:40;;;;;;;7.50;6.27;;;;;;;18.40;37.49;99159.00;4979841;28;21106;-77
2022/04/24 11:08:08;;;;;;;6.43;5.83;;;;;;;17.96;38.43;99155.28;4981273;28;20581;-76
2022/04/24 11:10:40;;;;;;;7.80;6.30;;;;;;;18.70;36.32;99141.31;4970885;28;21001;-76
2022/04/24 11:13:11;;;;;;;6.43;5.83;;;;;;;18.72;36.81;99145.44;4965141;28;20510;-77
2022/04/24 11:15:42;;;;;;;9.87;7.27;;;;;;;18.57;36.78;99136.81;4987122;28;20490;-81
2022/04/24 11:18:17;;;;;;;7.70;6.90;;;;;;;18.31;36.94;99132.41;4980555;28;20465;-79
2022/04/24 11:20:54;;;;;;;8.27;6.80;;;;;;;18.24;37.12;99138.72;4980168;28;20484;-80
2022/04/24 11:23:21;;;;;;;9.40;6.00;;;;;;;18.01;37.84;99128.44;4979943;28;20484;-76
2022/04/24 11:25:48;;;;;;;6.83;5.90;;;;;;;19.18;36.42;99137.97;4980250;28;20500;-82
2022/04/24 11:28:16;;;;;;;8.53;6.73;;;;;;;18.45;35.80;99131.28;4979741;28;20460;-79
2022/04/24 11:30:43;;;;;;;6.57;5.87;;;;;;;19.05;36.22;99125.38;4976568;28;20480;-83
2022/04/24 11:33:10;;;;;;;8.07;6.40;;;;;;;19.57;34.88;99134.00;4984456;28;20453;-81
2022/04/24 11:35:38;;;;;;;6.50;5.83;;;;;;;18.82;35.88;99117.91;4982575;28;20572;-84
2022/04/24 11:38:05;;;;;;;6.37;5.17;;;;;;;18.74;37.20;99127.09;4980460;28;20451;-78